NWS Home NWS Lubbock West Texas Mesonet North Sector Latest Conditions as of 0611 AM, Tue Oct 24, 2017

Latest   N   C   S   Daily Sum   3hrΔ   24hrΔ   Soil Data 
Site Map   24hr Precip   72hr Precip   Google Plot


Station Time of Last Temp Dew Pt. RH Wind Direction Wind Speed Wind Gust Max Wind Max Temp Min Temp Max RH Min RH Altimeter 1HR Rain Today's Rain Solar Rad Wind Chill
Aiken 3WSW  06:05 AM 37 29 74% NW67 11 mph 17° @ 0113 AM 48 36 79 56 30.48" 0 0.00 0  
Amarillo 15NNW   06:05 AM 42 32 69% SW56 13 mph 350° @ 1253 AM 46 41 69 44 30.50" 0 0.00 0  
Amarillo 7SSE  06:05 AM 37 27 67% NW77 12 mph 4° @ 1211 AM 47 36 67 44 30.50" 0 0.00 0  
Amarillo 9NNE  06:05 AM 41 30 65% N23 6 mph 178° @ 0359 AM 41 33 95 65 30.50" 0 0.00 0  
Amherst 1NE  06:05 AM 38 31 76% NW910 17 mph 24° @ 0105 AM 50 38 77 48 30.49" 0 0.00 0  
Bootleg 11WNW  06:05 AM 36 26 66% NW88 13 mph 359° @ 0315 AM 42 36 70 60 30.53" 0 0.00 0  
Boys Ranch 1WSW  06:05 AM 41 29 62% W89 11 mph 287° @ 0502 AM 47 39 68 45 30.52" 0 0.00 0  
Caprock Canyons State Park  06:05 AM 54 20 26% N1015 22 mph 351° @ 0558 AM 55 53 41 25 30.46" 0 0.00 0  
Childress 2NNE  06:05 AM 48 25 40% NW1114 16 mph 332° @ 0550 AM 51 47 56 38 30.42" 0 0.00 0  
Clarendon 2WSW  06:05 AM 41 27 57% NW910 12 mph 311° @ 0400 AM 46 40 62 47 30.45" 0 0.00 0  
Claude 12SW  06:05 AM 42 26 52% NW1014 14 mph 308° @ 0554 AM 45 40 62 51 30.48" 0 0.00 0  
Dimmitt 2NE  06:05 AM 36 29 78% NW89 12 mph 5° @ 1230 AM 45 35 79 60 30.50" 0 0.00 0  
Dozier 3W  06:05 AM 48 25 40% NW1114 16 mph 313° @ 0217 AM 54 44 48 33 30.44" 0 0.00 0  
Endee NM 2SW  06:05 AM 32 29 88% W34 8 mph 33° @ 1203 AM 42 32 90 71 30.53" 0 0.00 0  
Floydada 2NNE  06:05 AM 36 29 76% NW89 15 mph 8° @ 0130 AM 51 36 76 42 30.46" 0 0.00 0  
Friona 2NE  06:05 AM 36 29 76% N56 15 mph 28° @ 1215 AM 47 36 78 55 30.51" 0 0.00 0  
Goodlett 3W  06:05 AM 46 28 50% NW1011 19 mph 317° @ 0510 AM 53 46 54 37 30.40" 0 0.00 0  
Goodnight  06:05 AM 41 29 62% W1012 16 mph 334° @ 0228 AM 46 40 62 46 30.47" 0 0.00 0  
Happy 1E  06:05 AM 38 28 66% NW1011 14 mph 347° @ 0502 AM 44 38 73 58 30.49" 0 0.00 0  
Hart 3N  06:05 AM 36 29 78% NW68 15 mph 11° @ 1255 AM 47 36 78 58 30.49" 0 0.00 0  
Hereford 2NW  06:05 AM 34 27 76% NW67 11 mph 346° @ 0310 AM 43 34 76 61 30.50" 0 0.00 0 29
McLean 1E  06:05 AM 41 24 51% NW1215 18 mph 326° @ 0525 AM 45 39 56 46 30.42" 0 0.00 0  
Memphis 1NE  06:05 AM 48 25 41% NW912 14 mph 320° @ 0410 AM 52 46 46 34 30.43" 0 0.00 0  
Muleshoe 2SSW  06:05 AM 34 30 85% NW56 13 mph 19° @ 1235 AM 48 34 86 58 30.51" 0 0.00 0 29
Northfield 1S  05:10 AM 45 30 55% W810 17 mph 14° @ 1205 AM 56 44 58 34 30.43" 0 0.00 0  
Odell 4ENE  06:05 AM 46 31 57% NW1011 13 mph 323° @ 0604 AM 49 45 74 56 30.40" 0 0.00 0  
Olton 6S  06:05 AM 36 30 78% NW89 13 mph 13° @ 1240 AM 47 35 79 56 30.48" 0 0.00 0  
Palo Duro Canyon SP Floor  06:05 AM 39 29 67% NW34 7 mph 306° @ 0423 AM 51 39 69 43 30.50" 0 0.00 0  
Palo Duro Canyon State Park Rim  06:05 AM 40 26 58% NW911 17 mph 359° @ 1204 AM 50 40 58 38 30.50" 0 0.00 0  
Pampa 2E  06:05 AM 42 24 50% NW1317 17 mph 320° @ 0605 AM 45 41 53 46 30.45" 0 0.00 0  
Panhandle 1SSW  06:05 AM 43 29 56% NW1012 14 mph 321° @ 0551 AM 48 40 67 42 30.48" 0 0.00 0  
Plainview 1S  06:05 AM 41 29 64% NW68 19 mph 15° @ 1230 AM 51 41 65 45 30.47" 0 0.00 0  
Silverton 7ESE  06:05 AM 46 22 39% N912 20 mph 2° @ 1235 AM 52 39 59 33 30.46" 0 0.00 0  
Stinnett 1NNW  06:05 AM 42 24 47% NW1517 23 mph 334° @ 0431 AM 46 41 56 42 30.48" 0 0.00 0  
Turkey 2WSW  06:05 AM 45 27 49% NW78 19 mph 356° @ 1235 AM 54 45 53 35 30.44" 0 0.00 0  
Umbarger 3NNE  06:05 AM 33 28 80% NW78 9 mph 339° @ 0351 AM 41 33 80 66 30.50" 0 0.00 0 27
Vigo Park  06:05 AM 33 28 83% NW99 11 mph 344° @ 0242 AM 46 32 83 49 30.49" 0 0.00 0 25

West Texas Mesonet Home   Site Map/Menu  NWS Lubbock Soil Data  Daily Summary Page  24hr Precip  72hr Precip  Google Plot